• Join FlightAware (Why Join?)
  • Login
  • US Flag 
01:40AM EDT


 

Airport Tracker/Info


-or-


 

Live Flight TrackerFlight Track Log ✈ N843DW ✈ 10-Jun-2013 ✈ KUZA - KCRG

Flight Track Log - Related Links

Times and Time Zones

All times are in EDT time to prevent confusion due to time zone crossing. See the N843DW flight status page for this flight to view local times or setup timezone preferences in your user account.

Time Position Orientation Groundspeed Altitude Reporting Facility
EDT Latitude Longitude Course Direction KTS MPH feet Rate Location/Type
08:02PM 34.9811 -81.0603 178° South 160 184 1,000  Level Atlanta Center
08:03PM 34.9456 -81.0589 178° South 194 223 3,500 4,080 Climbing Atlanta Center
08:03PM 34.9289 -81.0569 175° South 220 253 5,000 4,320 Climbing Atlanta Center
08:04PM 34.8683 -81.0567 180° South 244 281 8,900 4,140 Climbing Atlanta Center
08:05PM 34.7994 -81.0564 180° South 254 292 13,300 4,200 Climbing Atlanta Center
08:06PM 34.7264 -81.0592 182° South 254 292 17,300 3,360 Climbing Atlanta Center
08:07PM 34.6181 -81.0558 179° South 286 329 20,900 2,460 Climbing Jacksonville Center
08:08PM 34.5242 -81.0581 181° South 322 371 22,800 1,560 Climbing Jacksonville Center
08:09PM 34.4197 -81.0603 181° South 366 421 24,100 1,320 Climbing Jacksonville Center
08:10PM 34.3072 -81.0600 180° South 392 451 25,500 900 Climbing Jacksonville Center
08:11PM 34.2050 -81.0697 184° South 386 444 26,000 240 Climbing Jacksonville Center
08:12PM 34.1056 -81.1044 196° South 393 452 26,000  Level Jacksonville Center
08:13PM 34.0017 -81.1467 199° South 393 452 26,100 420 Climbing Jacksonville Center
08:14PM 33.9022 -81.1886 199° South 393 452 26,900 720 Climbing Jacksonville Center
08:15PM 33.8047 -81.2331 201° Southwest 388 447 27,600 720 Climbing Jacksonville Center
08:16PM 33.7156 -81.2847 206° Southwest 376 433 28,400 660 Climbing Jacksonville Center
08:17PM 33.6244 -81.3386 206° Southwest 365 420 29,000 660 Climbing Jacksonville Center
08:18PM 33.5331 -81.3875 204° Southwest 365 420 29,800 480 Climbing Jacksonville Center
08:19PM 33.4400 -81.4414 206° Southwest 360 414 30,000 60 Climbing Jacksonville Center
08:20PM 33.3361 -81.5003 205° Southwest 383 441 30,000  Level Jacksonville Center
08:21PM 33.2264 -81.5642 206° Southwest 416 479 30,000 300 Level Jacksonville Center
08:22PM 33.1142 -81.6303 206° Southwest 437 503 30,700 780 Climbing Jacksonville Center
08:23PM 33.0083 -81.6861 204° Southwest 439 505 31,600 600 Climbing Jacksonville Center
08:24PM 32.9003 -81.7469 205° Southwest 434 499 32,000 180 Climbing Jacksonville Center
08:25PM 32.7903 -81.8103 206° Southwest 434 499 32,000  Level Jacksonville Center
08:26PM 32.6719 -81.8808 207° Southwest 442 509 32,000  Level Jacksonville Center
08:27PM 32.5636 -81.9289 201° Southwest 447 514 32,000  Level Jacksonville Center
08:28PM 32.4303 -81.9572 190° South 447 514 32,000 -240 Level Jacksonville Center
08:29PM 32.3136 -81.9806 190° South 437 503 31,600 -780 Descending Jacksonville Center
08:30PM 32.1967 -82.0014 189° South 431 496 30,500 -1,020 Descending Jacksonville Center
08:31PM 32.0758 -82.0247 189° South 431 496 29,600 -900 Descending Jacksonville Center
08:32PM 31.9717 -82.0453 190° South 427 491 28,700 -1,200 Descending Jacksonville Center
08:33PM 31.8422 -82.0683 189° South 432 497 27,200 -1,740 Descending Jacksonville Center
08:34PM 31.7339 -82.0914 190° South 432 497 25,300 -2,040 Descending Jacksonville Center
08:35PM 31.6108 -82.1192 191° South 421 484 23,200 -2,040 Descending Jacksonville Center
08:36PM 31.5044 -82.1372 188° South 406 467 21,300 -1,920 Descending Jacksonville Center
08:37PM 31.4003 -82.1600 191° South 386 444 19,400 -1,860 Descending Jacksonville Center
08:38PM 31.3000 -82.1778 189° South 381 438 17,600 -1,800 Descending Jacksonville Center
08:39PM 31.2481 -82.1878 189° South 365 420 16,700 -1,800 Descending Jacksonville Center
08:39PM 31.2125 -82.1931 187° South 362 417 16,000 -1,800 Descending Jacksonville Center
08:40PM 31.1103 -82.2156 191° South 342 394 14,200 -1,740 Descending Jacksonville Center
08:41PM 31.0164 -82.2042 174° South 348 400 12,500 -1,140 Descending Jacksonville Center
08:42PM 30.9242 -82.1611 158° South 353 406 12,000 -300 Descending Jacksonville Center
08:43PM 30.8528 -82.0819 136° Southeast 362 417 12,000 -180 Level Jacksonville Center
08:44PM 30.7792 -82.0053 138° Southeast 363 418 11,700 -720 Descending Jacksonville Center
08:45PM 30.7075 -81.9236 136° Southeast 355 409 10,600 -1,080 Descending Jacksonville Center
08:46PM 30.6486 -81.8592 137° Southeast 321 369 9,600 -1,200 Descending Jacksonville Center
08:47PM 30.5917 -81.7944 136° Southeast 302 348 8,200 -1,500 Descending Jacksonville Center
08:48PM 30.5325 -81.7278 136° Southeast 292 336 6,700 -1,980 Descending Jacksonville Center
08:50PM 30.4672 -81.6539 136° Southeast 257 296 3,800 -2,100 Descending Jacksonville Center
08:51PM 30.4167 -81.6064 141° Southeast 229 264 2,100 -1,440 Descending Jacksonville Center
08:51PM 30.3914 -81.5778 136° Southeast 171 197 1,400 -960 Descending Jacksonville Center
08:52PM 30.3594 -81.5397 134° Southeast 107 123 400 -900 Descending Jacksonville Center
08:54PM 30.3363 -81.5144 North  Level Estimated
09:01PM 30.3363 -81.5144 North  Level Estimated